sensor_id;sensor_type;location;lat;lon;timestamp;temperature;humidity
41928;DHT22;27616;51.420;6.788;2023-10-13T00:01:33;17.60;99.90
41928;DHT22;27616;51.420;6.788;2023-10-13T00:04:00;17.50;99.90
41928;DHT22;27616;51.420;6.788;2023-10-13T00:06:31;17.60;99.90
41928;DHT22;27616;51.420;6.788;2023-10-13T00:08:56;17.60;99.90
41928;DHT22;27616;51.420;6.788;2023-10-13T00:11:22;17.60;99.90
41928;DHT22;27616;51.420;6.788;2023-10-13T00:13:47;17.60;99.90
41928;DHT22;27616;51.420;6.788;2023-10-13T00:16:17;17.50;99.90
41928;DHT22;27616;51.420;6.788;2023-10-13T00:18:47;17.60;99.90
41928;DHT22;27616;51.420;6.788;2023-10-13T00:21:13;17.60;99.90
41928;DHT22;27616;51.420;6.788;2023-10-13T00:23:48;17.50;99.90
41928;DHT22;27616;51.420;6.788;2023-10-13T00:26:25;17.60;99.90
41928;DHT22;27616;51.420;6.788;2023-10-13T00:28:56;17.50;99.90
41928;DHT22;27616;51.420;6.788;2023-10-13T00:31:26;17.50;99.90
41928;DHT22;27616;51.420;6.788;2023-10-13T00:33:58;17.60;99.90
41928;DHT22;27616;51.420;6.788;2023-10-13T00:36:35;17.60;99.90
41928;DHT22;27616;51.420;6.788;2023-10-13T00:39:01;17.60;99.90
41928;DHT22;27616;51.420;6.788;2023-10-13T00:41:29;17.60;99.90
41928;DHT22;27616;51.420;6.788;2023-10-13T00:44:13;17.60;99.90
41928;DHT22;27616;51.420;6.788;2023-10-13T00:46:42;17.60;99.90
41928;DHT22;27616;51.420;6.788;2023-10-13T00:49:11;17.60;99.90
41928;DHT22;27616;51.420;6.788;2023-10-13T00:51:42;17.60;99.90
41928;DHT22;27616;51.420;6.788;2023-10-13T00:54:12;17.60;99.90
41928;DHT22;27616;51.420;6.788;2023-10-13T00:56:39;17.60;99.90
41928;DHT22;27616;51.420;6.788;2023-10-13T00:59:23;17.60;99.90
41928;DHT22;27616;51.420;6.788;2023-10-13T01:01:51;17.60;99.90
41928;DHT22;27616;51.420;6.788;2023-10-13T01:04:21;17.70;99.90
41928;DHT22;27616;51.420;6.788;2023-10-13T01:06:50;17.70;99.90
41928;DHT22;27616;51.420;6.788;2023-10-13T01:09:16;17.70;99.90
41928;DHT22;27616;51.420;6.788;2023-10-13T01:14:12;17.70;99.90
41928;DHT22;27616;51.420;6.788;2023-10-13T01:16:40;17.70;99.90
41928;DHT22;27616;51.420;6.788;2023-10-13T01:19:13;17.70;99.90
41928;DHT22;27616;51.420;6.788;2023-10-13T01:21:39;17.60;99.90
41928;DHT22;27616;51.420;6.788;2023-10-13T01:24:14;17.70;99.90
41928;DHT22;27616;51.420;6.788;2023-10-13T01:26:44;17.70;99.90
41928;DHT22;27616;51.420;6.788;2023-10-13T01:29:10;17.70;99.90
41928;DHT22;27616;51.420;6.788;2023-10-13T01:31:40;17.70;99.90
41928;DHT22;27616;51.420;6.788;2023-10-13T01:34:20;17.70;99.90
41928;DHT22;27616;51.420;6.788;2023-10-13T01:39:17;17.70;99.90
41928;DHT22;27616;51.420;6.788;2023-10-13T01:41:43;17.70;99.90
41928;DHT22;27616;51.420;6.788;2023-10-13T01:44:12;17.70;99.90
41928;DHT22;27616;51.420;6.788;2023-10-13T01:46:38;17.60;99.90
41928;DHT22;27616;51.420;6.788;2023-10-13T01:49:04;17.60;99.90
41928;DHT22;27616;51.420;6.788;2023-10-13T01:51:30;17.50;99.90
41928;DHT22;27616;51.420;6.788;2023-10-13T01:53:55;17.50;99.90
41928;DHT22;27616;51.420;6.788;2023-10-13T01:56:24;17.50;99.90
41928;DHT22;27616;51.420;6.788;2023-10-13T01:58:50;17.40;99.90
41928;DHT22;27616;51.420;6.788;2023-10-13T02:01:17;17.40;99.90
41928;DHT22;27616;51.420;6.788;2023-10-13T02:03:53;17.40;99.90
41928;DHT22;27616;51.420;6.788;2023-10-13T02:06:28;17.40;99.90
41928;DHT22;27616;51.420;6.788;2023-10-13T02:08:59;17.40;99.90
41928;DHT22;27616;51.420;6.788;2023-10-13T02:11:30;17.40;99.90
41928;DHT22;27616;51.420;6.788;2023-10-13T02:13:56;17.30;99.90
41928;DHT22;27616;51.420;6.788;2023-10-13T02:16:23;17.30;99.90
41928;DHT22;27616;51.420;6.788;2023-10-13T02:18:51;17.30;99.90
41928;DHT22;27616;51.420;6.788;2023-10-13T02:21:17;17.30;99.90
41928;DHT22;27616;51.420;6.788;2023-10-13T02:23:43;17.30;99.90
41928;DHT22;27616;51.420;6.788;2023-10-13T02:26:12;17.30;99.90
41928;DHT22;27616;51.420;6.788;2023-10-13T02:28:41;17.30;99.90
41928;DHT22;27616;51.420;6.788;2023-10-13T02:31:07;17.30;99.90
41928;DHT22;27616;51.420;6.788;2023-10-13T02:33:34;17.30;99.90
41928;DHT22;27616;51.420;6.788;2023-10-13T02:36:02;17.40;99.90
41928;DHT22;27616;51.420;6.788;2023-10-13T02:38:34;17.30;99.90
41928;DHT22;27616;51.420;6.788;2023-10-13T02:41:02;17.30;99.90
41928;DHT22;27616;51.420;6.788;2023-10-13T02:43:35;17.30;99.90
41928;DHT22;27616;51.420;6.788;2023-10-13T02:46:02;17.40;99.90
41928;DHT22;27616;51.420;6.788;2023-10-13T02:48:28;17.40;99.90
41928;DHT22;27616;51.420;6.788;2023-10-13T02:51:08;17.40;99.90
41928;DHT22;27616;51.420;6.788;2023-10-13T02:53:47;17.40;99.90
41928;DHT22;27616;51.420;6.788;2023-10-13T02:56:14;17.40;99.90
41928;DHT22;27616;51.420;6.788;2023-10-13T02:58:45;17.40;99.90
41928;DHT22;27616;51.420;6.788;2023-10-13T03:01:12;17.40;99.90
41928;DHT22;27616;51.420;6.788;2023-10-13T03:03:48;17.40;99.90
41928;DHT22;27616;51.420;6.788;2023-10-13T03:06:25;17.40;99.90
41928;DHT22;27616;51.420;6.788;2023-10-13T03:09:04;17.40;99.90
41928;DHT22;27616;51.420;6.788;2023-10-13T03:11:44;17.40;99.90
41928;DHT22;27616;51.420;6.788;2023-10-13T03:17:03;17.40;99.90
41928;DHT22;27616;51.420;6.788;2023-10-13T03:19:33;17.40;99.90
41928;DHT22;27616;51.420;6.788;2023-10-13T03:22:10;17.40;99.90
41928;DHT22;27616;51.420;6.788;2023-10-13T03:24:42;17.40;99.90
41928;DHT22;27616;51.420;6.788;2023-10-13T03:27:13;17.40;99.90
41928;DHT22;27616;51.420;6.788;2023-10-13T03:29:42;17.40;99.90
41928;DHT22;27616;51.420;6.788;2023-10-13T03:32:13;17.40;99.90
41928;DHT22;27616;51.420;6.788;2023-10-13T03:34:42;17.40;99.90
41928;DHT22;27616;51.420;6.788;2023-10-13T03:37:26;17.40;99.90
41928;DHT22;27616;51.420;6.788;2023-10-13T03:40:09;17.40;99.90
41928;DHT22;27616;51.420;6.788;2023-10-13T03:42:52;17.30;99.90
41928;DHT22;27616;51.420;6.788;2023-10-13T03:45:39;17.30;99.90
41928;DHT22;27616;51.420;6.788;2023-10-13T03:48:08;17.30;99.90
41928;DHT22;27616;51.420;6.788;2023-10-13T03:50:38;17.30;99.90
41928;DHT22;27616;51.420;6.788;2023-10-13T03:53:23;17.40;99.90
41928;DHT22;27616;51.420;6.788;2023-10-13T03:55:51;17.40;99.90
41928;DHT22;27616;51.420;6.788;2023-10-13T03:58:34;17.40;99.90
41928;DHT22;27616;51.420;6.788;2023-10-13T04:01:00;17.40;99.90
41928;DHT22;27616;51.420;6.788;2023-10-13T04:03:26;17.40;99.90
41928;DHT22;27616;51.420;6.788;2023-10-13T04:06:08;17.40;99.90
41928;DHT22;27616;51.420;6.788;2023-10-13T04:08:34;17.30;99.90
41928;DHT22;27616;51.420;6.788;2023-10-13T04:11:08;17.30;99.90
41928;DHT22;27616;51.420;6.788;2023-10-13T04:13:53;17.30;99.90
41928;DHT22;27616;51.420;6.788;2023-10-13T04:16:37;17.30;99.90
41928;DHT22;27616;51.420;6.788;2023-10-13T04:19:05;17.30;99.90
41928;DHT22;27616;51.420;6.788;2023-10-13T04:21:34;17.30;99.90
41928;DHT22;27616;51.420;6.788;2023-10-13T04:24:11;17.30;99.90
41928;DHT22;27616;51.420;6.788;2023-10-13T04:26:50;17.40;99.90
41928;DHT22;27616;51.420;6.788;2023-10-13T04:29:34;17.40;99.90
41928;DHT22;27616;51.420;6.788;2023-10-13T04:32:12;17.30;99.90
41928;DHT22;27616;51.420;6.788;2023-10-13T04:34:55;17.40;99.90
41928;DHT22;27616;51.420;6.788;2023-10-13T04:37:35;17.30;99.90
41928;DHT22;27616;51.420;6.788;2023-10-13T04:40:17;17.40;99.90
41928;DHT22;27616;51.420;6.788;2023-10-13T04:42:46;17.40;99.90
41928;DHT22;27616;51.420;6.788;2023-10-13T04:45:17;17.40;99.90
41928;DHT22;27616;51.420;6.788;2023-10-13T04:47:58;17.40;99.90
41928;DHT22;27616;51.420;6.788;2023-10-13T04:50:47;17.40;99.90
41928;DHT22;27616;51.420;6.788;2023-10-13T04:53:16;17.40;99.90
41928;DHT22;27616;51.420;6.788;2023-10-13T04:56:21;17.40;99.90
41928;DHT22;27616;51.420;6.788;2023-10-13T04:59:05;17.40;99.90
41928;DHT22;27616;51.420;6.788;2023-10-13T05:01:58;17.40;99.90
41928;DHT22;27616;51.420;6.788;2023-10-13T05:05:03;17.40;99.90
41928;DHT22;27616;51.420;6.788;2023-10-13T05:07:32;17.40;99.90
41928;DHT22;27616;51.420;6.788;2023-10-13T05:10:17;17.30;99.90
41928;DHT22;27616;51.420;6.788;2023-10-13T05:13:01;17.30;99.90
41928;DHT22;27616;51.420;6.788;2023-10-13T05:15:50;17.30;99.90
41928;DHT22;27616;51.420;6.788;2023-10-13T05:18:35;17.30;99.90
41928;DHT22;27616;51.420;6.788;2023-10-13T05:21:19;17.30;99.90
41928;DHT22;27616;51.420;6.788;2023-10-13T05:24:04;17.30;99.90
41928;DHT22;27616;51.420;6.788;2023-10-13T05:26:49;17.40;99.90
41928;DHT22;27616;51.420;6.788;2023-10-13T05:29:33;17.30;99.90
41928;DHT22;27616;51.420;6.788;2023-10-13T05:32:17;17.30;99.90
41928;DHT22;27616;51.420;6.788;2023-10-13T05:35:02;17.30;99.90
41928;DHT22;27616;51.420;6.788;2023-10-13T05:37:47;17.30;99.90
41928;DHT22;27616;51.420;6.788;2023-10-13T05:40:32;17.30;99.90
41928;DHT22;27616;51.420;6.788;2023-10-13T05:43:16;17.30;99.90
41928;DHT22;27616;51.420;6.788;2023-10-13T05:46:02;17.30;99.90
41928;DHT22;27616;51.420;6.788;2023-10-13T05:48:48;17.30;99.90
41928;DHT22;27616;51.420;6.788;2023-10-13T05:51:30;17.40;99.90
41928;DHT22;27616;51.420;6.788;2023-10-13T05:54:10;17.30;99.90
41928;DHT22;27616;51.420;6.788;2023-10-13T05:56:47;17.30;99.90
41928;DHT22;27616;51.420;6.788;2023-10-13T05:59:33;17.30;99.90
41928;DHT22;27616;51.420;6.788;2023-10-13T06:02:19;17.30;99.90
41928;DHT22;27616;51.420;6.788;2023-10-13T06:05:07;17.30;99.90
41928;DHT22;27616;51.420;6.788;2023-10-13T06:07:52;17.30;99.90
41928;DHT22;27616;51.420;6.788;2023-10-13T06:10:37;17.30;99.90
41928;DHT22;27616;51.420;6.788;2023-10-13T06:13:22;17.30;99.90
41928;DHT22;27616;51.420;6.788;2023-10-13T06:16:08;17.40;99.90
41928;DHT22;27616;51.420;6.788;2023-10-13T06:18:52;17.40;99.90
41928;DHT22;27616;51.420;6.788;2023-10-13T06:21:37;17.40;99.90
41928;DHT22;27616;51.420;6.788;2023-10-13T06:24:22;17.50;99.90
41928;DHT22;27616;51.420;6.788;2023-10-13T06:27:06;17.50;99.90
41928;DHT22;27616;51.420;6.788;2023-10-13T06:29:51;17.50;99.90
41928;DHT22;27616;51.420;6.788;2023-10-13T06:32:22;17.60;99.90
41928;DHT22;27616;51.420;6.788;2023-10-13T06:34:54;17.60;99.90
41928;DHT22;27616;51.420;6.788;2023-10-13T06:37:26;17.60;99.90
41928;DHT22;27616;51.420;6.788;2023-10-13T06:39:56;17.70;99.90
41928;DHT22;27616;51.420;6.788;2023-10-13T06:42:23;17.70;99.90
41928;DHT22;27616;51.420;6.788;2023-10-13T06:44:53;17.70;99.90
41928;DHT22;27616;51.420;6.788;2023-10-13T06:47:19;17.80;99.90
41928;DHT22;27616;51.420;6.788;2023-10-13T06:49:46;17.80;99.90
41928;DHT22;27616;51.420;6.788;2023-10-13T06:52:14;17.80;99.90
41928;DHT22;27616;51.420;6.788;2023-10-13T06:54:41;17.90;99.90
41928;DHT22;27616;51.420;6.788;2023-10-13T06:57:09;17.90;99.90
41928;DHT22;27616;51.420;6.788;2023-10-13T06:59:42;17.90;99.90
41928;DHT22;27616;51.420;6.788;2023-10-13T07:02:08;17.90;99.90
41928;DHT22;27616;51.420;6.788;2023-10-13T07:04:38;17.90;99.90
41928;DHT22;27616;51.420;6.788;2023-10-13T07:07:05;18.00;99.90
41928;DHT22;27616;51.420;6.788;2023-10-13T07:09:39;18.10;99.90
41928;DHT22;27616;51.420;6.788;2023-10-13T07:12:05;18.00;99.90
41928;DHT22;27616;51.420;6.788;2023-10-13T07:14:52;18.10;99.90
41928;DHT22;27616;51.420;6.788;2023-10-13T07:17:19;18.10;99.90
41928;DHT22;27616;51.420;6.788;2023-10-13T07:19:58;18.20;99.90
41928;DHT22;27616;51.420;6.788;2023-10-13T07:22:43;18.20;99.90
41928;DHT22;27616;51.420;6.788;2023-10-13T07:25:23;18.20;99.90
41928;DHT22;27616;51.420;6.788;2023-10-13T07:27:50;18.20;99.90
41928;DHT22;27616;51.420;6.788;2023-10-13T07:30:17;18.20;99.90
41928;DHT22;27616;51.420;6.788;2023-10-13T07:32:45;18.20;99.90
41928;DHT22;27616;51.420;6.788;2023-10-13T07:35:12;18.20;99.90
41928;DHT22;27616;51.420;6.788;2023-10-13T07:37:38;18.30;99.90
41928;DHT22;27616;51.420;6.788;2023-10-13T07:40:08;18.30;99.90
41928;DHT22;27616;51.420;6.788;2023-10-13T07:42:47;18.30;99.90
41928;DHT22;27616;51.420;6.788;2023-10-13T07:45:12;18.40;99.90
41928;DHT22;27616;51.420;6.788;2023-10-13T07:47:39;18.40;99.90
41928;DHT22;27616;51.420;6.788;2023-10-13T07:50:05;18.40;99.90
41928;DHT22;27616;51.420;6.788;2023-10-13T07:52:32;18.40;99.90
41928;DHT22;27616;51.420;6.788;2023-10-13T07:55:06;18.50;99.90
41928;DHT22;27616;51.420;6.788;2023-10-13T07:57:40;18.50;99.90
41928;DHT22;27616;51.420;6.788;2023-10-13T08:00:23;18.70;99.90
41928;DHT22;27616;51.420;6.788;2023-10-13T08:03:00;18.80;99.90
41928;DHT22;27616;51.420;6.788;2023-10-13T08:05:51;18.90;99.90
41928;DHT22;27616;51.420;6.788;2023-10-13T08:08:35;19.00;99.90
41928;DHT22;27616;51.420;6.788;2023-10-13T08:11:10;19.00;99.90
41928;DHT22;27616;51.420;6.788;2023-10-13T08:13:56;19.10;99.90
41928;DHT22;27616;51.420;6.788;2023-10-13T08:16:26;19.10;99.90
41928;DHT22;27616;51.420;6.788;2023-10-13T08:19:12;19.10;99.90
41928;DHT22;27616;51.420;6.788;2023-10-13T08:21:41;19.20;99.90
41928;DHT22;27616;51.420;6.788;2023-10-13T08:24:15;19.30;99.90
41928;DHT22;27616;51.420;6.788;2023-10-13T08:26:41;19.40;99.90
41928;DHT22;27616;51.420;6.788;2023-10-13T08:29:25;19.50;99.90
41928;DHT22;27616;51.420;6.788;2023-10-13T08:31:54;19.60;99.90
41928;DHT22;27616;51.420;6.788;2023-10-13T08:34:43;19.60;99.90
41928;DHT22;27616;51.420;6.788;2023-10-13T08:37:13;19.70;99.90
41928;DHT22;27616;51.420;6.788;2023-10-13T08:39:52;19.80;99.90
41928;DHT22;27616;51.420;6.788;2023-10-13T08:42:35;19.90;99.90
41928;DHT22;27616;51.420;6.788;2023-10-13T08:47:47;20.00;99.90
41928;DHT22;27616;51.420;6.788;2023-10-13T08:50:23;20.10;99.90
41928;DHT22;27616;51.420;6.788;2023-10-13T08:53:14;20.20;99.90
41928;DHT22;27616;51.420;6.788;2023-10-13T08:58:47;20.30;99.90
41928;DHT22;27616;51.420;6.788;2023-10-13T09:01:37;20.30;99.90
41928;DHT22;27616;51.420;6.788;2023-10-13T09:04:14;20.30;99.90
41928;DHT22;27616;51.420;6.788;2023-10-13T09:06:47;20.40;99.90
41928;DHT22;27616;51.420;6.788;2023-10-13T09:12:24;20.70;99.90
41928;DHT22;27616;51.420;6.788;2023-10-13T09:15:00;20.90;99.90
41928;DHT22;27616;51.420;6.788;2023-10-13T09:17:52;21.10;99.90
41928;DHT22;27616;51.420;6.788;2023-10-13T09:20:38;21.20;99.90
41928;DHT22;27616;51.420;6.788;2023-10-13T09:23:15;21.30;99.90
41928;DHT22;27616;51.420;6.788;2023-10-13T09:25:51;21.40;99.90
41928;DHT22;27616;51.420;6.788;2023-10-13T09:28:23;21.60;99.90
41928;DHT22;27616;51.420;6.788;2023-10-13T09:30:52;21.70;99.90
41928;DHT22;27616;51.420;6.788;2023-10-13T09:33:23;22.00;99.90
41928;DHT22;27616;51.420;6.788;2023-10-13T09:35:58;22.40;99.90
41928;DHT22;27616;51.420;6.788;2023-10-13T09:38:28;23.00;99.90
41928;DHT22;27616;51.420;6.788;2023-10-13T09:40:54;23.50;99.90
41928;DHT22;27616;51.420;6.788;2023-10-13T09:43:24;23.60;99.90
41928;DHT22;27616;51.420;6.788;2023-10-13T09:45:51;23.90;99.90
41928;DHT22;27616;51.420;6.788;2023-10-13T09:48:37;24.20;99.90
41928;DHT22;27616;51.420;6.788;2023-10-13T09:51:13;24.10;99.90
41928;DHT22;27616;51.420;6.788;2023-10-13T09:53:40;24.20;99.90
41928;DHT22;27616;51.420;6.788;2023-10-13T09:56:16;24.30;99.90
41928;DHT22;27616;51.420;6.788;2023-10-13T09:58:55;24.20;99.90
41928;DHT22;27616;51.420;6.788;2023-10-13T10:01:28;23.90;99.90
41928;DHT22;27616;51.420;6.788;2023-10-13T10:04:11;23.60;99.90
41928;DHT22;27616;51.420;6.788;2023-10-13T10:06:52;23.30;99.90
41928;DHT22;27616;51.420;6.788;2023-10-13T10:09:19;23.30;99.90
41928;DHT22;27616;51.420;6.788;2023-10-13T10:17:42;22.80;99.90
41928;DHT22;27616;51.420;6.788;2023-10-13T10:20:09;22.70;99.90
41928;DHT22;27616;51.420;6.788;2023-10-13T10:22:57;22.70;99.90
41928;DHT22;27616;51.420;6.788;2023-10-13T10:25:30;22.60;99.90
41928;DHT22;27616;51.420;6.788;2023-10-13T10:28:02;22.60;99.90
41928;DHT22;27616;51.420;6.788;2023-10-13T10:30:36;22.50;99.90
41928;DHT22;27616;51.420;6.788;2023-10-13T10:33:05;22.50;99.90
41928;DHT22;27616;51.420;6.788;2023-10-13T10:35:48;22.50;99.90
41928;DHT22;27616;51.420;6.788;2023-10-13T10:38:23;22.60;99.90
41928;DHT22;27616;51.420;6.788;2023-10-13T10:40:52;22.50;99.90
41928;DHT22;27616;51.420;6.788;2023-10-13T10:43:26;22.50;99.90
41928;DHT22;27616;51.420;6.788;2023-10-13T10:45:52;22.50;99.90
41928;DHT22;27616;51.420;6.788;2023-10-13T10:48:25;22.50;99.90
41928;DHT22;27616;51.420;6.788;2023-10-13T10:50:57;22.60;99.90
41928;DHT22;27616;51.420;6.788;2023-10-13T10:53:24;22.60;99.90
41928;DHT22;27616;51.420;6.788;2023-10-13T10:56:08;22.70;99.90
41928;DHT22;27616;51.420;6.788;2023-10-13T10:58:46;22.60;99.90
41928;DHT22;27616;51.420;6.788;2023-10-13T11:01:12;22.70;99.90
41928;DHT22;27616;51.420;6.788;2023-10-13T11:03:56;22.70;99.90
41928;DHT22;27616;51.420;6.788;2023-10-13T11:06:24;22.70;99.90
41928;DHT22;27616;51.420;6.788;2023-10-13T11:09:06;22.70;99.90
41928;DHT22;27616;51.420;6.788;2023-10-13T11:11:46;22.80;99.90
41928;DHT22;27616;51.420;6.788;2023-10-13T11:14:27;22.80;99.90
41928;DHT22;27616;51.420;6.788;2023-10-13T11:16:58;22.80;99.90
41928;DHT22;27616;51.420;6.788;2023-10-13T11:19:35;22.90;99.90
41928;DHT22;27616;51.420;6.788;2023-10-13T11:22:14;23.00;99.90
41928;DHT22;27616;51.420;6.788;2023-10-13T11:25:03;23.00;99.90
41928;DHT22;27616;51.420;6.788;2023-10-13T11:27:42;23.00;99.90
41928;DHT22;27616;51.420;6.788;2023-10-13T11:30:14;23.10;99.90
41928;DHT22;27616;51.420;6.788;2023-10-13T11:33:01;23.30;99.90
41928;DHT22;27616;51.420;6.788;2023-10-13T11:35:31;23.60;99.90
41928;DHT22;27616;51.420;6.788;2023-10-13T11:38:15;23.90;99.90
41928;DHT22;27616;51.420;6.788;2023-10-13T11:40:51;24.20;99.90
41928;DHT22;27616;51.420;6.788;2023-10-13T11:43:35;24.70;99.90
41928;DHT22;27616;51.420;6.788;2023-10-13T11:46:27;25.00;99.90
41928;DHT22;27616;51.420;6.788;2023-10-13T11:51:47;24.70;99.90
41928;DHT22;27616;51.420;6.788;2023-10-13T11:54:17;24.50;99.90
41928;DHT22;27616;51.420;6.788;2023-10-13T11:56:47;24.40;99.90
41928;DHT22;27616;51.420;6.788;2023-10-13T11:59:13;24.40;99.90
41928;DHT22;27616;51.420;6.788;2023-10-13T12:01:50;24.30;99.90
41928;DHT22;27616;51.420;6.788;2023-10-13T12:04:36;24.20;99.90
41928;DHT22;27616;51.420;6.788;2023-10-13T12:07:14;24.20;99.90
41928;DHT22;27616;51.420;6.788;2023-10-13T12:09:41;24.20;99.90
41928;DHT22;27616;51.420;6.788;2023-10-13T12:12:17;24.30;99.90
41928;DHT22;27616;51.420;6.788;2023-10-13T12:14:43;24.30;99.90
41928;DHT22;27616;51.420;6.788;2023-10-13T12:17:38;24.30;99.90
41928;DHT22;27616;51.420;6.788;2023-10-13T12:20:08;24.40;99.90
41928;DHT22;27616;51.420;6.788;2023-10-13T12:22:43;24.40;99.90
41928;DHT22;27616;51.420;6.788;2023-10-13T12:25:09;24.40;99.90
41928;DHT22;27616;51.420;6.788;2023-10-13T12:27:50;24.40;99.90
41928;DHT22;27616;51.420;6.788;2023-10-13T12:30:21;24.40;99.90
41928;DHT22;27616;51.420;6.788;2023-10-13T12:33:14;24.40;99.90
41928;DHT22;27616;51.420;6.788;2023-10-13T12:35:42;24.40;99.90
41928;DHT22;27616;51.420;6.788;2023-10-13T12:38:32;24.30;99.90
41928;DHT22;27616;51.420;6.788;2023-10-13T12:41:16;24.30;99.90
41928;DHT22;27616;51.420;6.788;2023-10-13T12:44:01;24.30;99.90
41928;DHT22;27616;51.420;6.788;2023-10-13T12:46:45;24.30;99.90
41928;DHT22;27616;51.420;6.788;2023-10-13T12:49:29;24.20;99.90
41928;DHT22;27616;51.420;6.788;2023-10-13T12:52:07;24.20;99.90
41928;DHT22;27616;51.420;6.788;2023-10-13T12:54:42;24.20;99.90
41928;DHT22;27616;51.420;6.788;2023-10-13T12:57:15;24.30;99.90
41928;DHT22;27616;51.420;6.788;2023-10-13T12:59:42;24.20;99.90
41928;DHT22;27616;51.420;6.788;2023-10-13T13:02:08;24.20;99.90
41928;DHT22;27616;51.420;6.788;2023-10-13T13:04:41;24.20;99.90
41928;DHT22;27616;51.420;6.788;2023-10-13T13:07:10;24.20;99.90
41928;DHT22;27616;51.420;6.788;2023-10-13T13:09:42;24.10;99.90
41928;DHT22;27616;51.420;6.788;2023-10-13T13:12:08;24.10;99.90
41928;DHT22;27616;51.420;6.788;2023-10-13T13:14:38;24.00;99.90
41928;DHT22;27616;51.420;6.788;2023-10-13T13:17:06;24.10;99.90
41928;DHT22;27616;51.420;6.788;2023-10-13T13:19:36;24.10;99.90
41928;DHT22;27616;51.420;6.788;2023-10-13T13:22:05;24.10;99.90
41928;DHT22;27616;51.420;6.788;2023-10-13T13:24:34;24.20;99.90
41928;DHT22;27616;51.420;6.788;2023-10-13T13:27:00;24.20;99.90
41928;DHT22;27616;51.420;6.788;2023-10-13T13:29:29;24.20;99.90
41928;DHT22;27616;51.420;6.788;2023-10-13T13:31:55;24.20;99.90
41928;DHT22;27616;51.420;6.788;2023-10-13T13:34:21;24.10;99.90
41928;DHT22;27616;51.420;6.788;2023-10-13T13:36:47;24.10;99.90
41928;DHT22;27616;51.420;6.788;2023-10-13T13:39:19;24.00;99.90
41928;DHT22;27616;51.420;6.788;2023-10-13T13:41:54;24.00;99.90
41928;DHT22;27616;51.420;6.788;2023-10-13T13:44:25;24.00;99.90
41928;DHT22;27616;51.420;6.788;2023-10-13T13:47:01;23.90;99.90
41928;DHT22;27616;51.420;6.788;2023-10-13T13:49:37;23.90;99.90
41928;DHT22;27616;51.420;6.788;2023-10-13T13:52:06;23.80;99.90
41928;DHT22;27616;51.420;6.788;2023-10-13T13:54:32;23.80;99.90
41928;DHT22;27616;51.420;6.788;2023-10-13T13:56:58;23.80;99.90
41928;DHT22;27616;51.420;6.788;2023-10-13T13:59:24;23.80;99.90
41928;DHT22;27616;51.420;6.788;2023-10-13T14:01:49;23.80;99.90
41928;DHT22;27616;51.420;6.788;2023-10-13T14:04:18;23.80;99.90
41928;DHT22;27616;51.420;6.788;2023-10-13T14:06:44;23.80;99.90
41928;DHT22;27616;51.420;6.788;2023-10-13T14:09:10;23.90;99.90
41928;DHT22;27616;51.420;6.788;2023-10-13T14:11:41;23.90;99.90
41928;DHT22;27616;51.420;6.788;2023-10-13T14:14:07;23.80;99.90
41928;DHT22;27616;51.420;6.788;2023-10-13T14:16:55;23.80;99.90
41928;DHT22;27616;51.420;6.788;2023-10-13T14:19:28;23.70;99.90
41928;DHT22;27616;51.420;6.788;2023-10-13T14:21:58;23.70;99.90
41928;DHT22;27616;51.420;6.788;2023-10-13T14:24:24;23.70;99.90
41928;DHT22;27616;51.420;6.788;2023-10-13T14:27:02;23.60;99.90
41928;DHT22;27616;51.420;6.788;2023-10-13T14:29:38;23.50;99.90
41928;DHT22;27616;51.420;6.788;2023-10-13T14:32:13;23.50;99.90
41928;DHT22;27616;51.420;6.788;2023-10-13T14:34:41;23.50;99.90
41928;DHT22;27616;51.420;6.788;2023-10-13T14:37:07;23.50;99.90
41928;DHT22;27616;51.420;6.788;2023-10-13T14:39:33;23.50;99.90
41928;DHT22;27616;51.420;6.788;2023-10-13T14:42:04;23.40;99.90
41928;DHT22;27616;51.420;6.788;2023-10-13T14:44:34;23.40;99.90
41928;DHT22;27616;51.420;6.788;2023-10-13T14:47:00;23.30;99.90
41928;DHT22;27616;51.420;6.788;2023-10-13T14:49:27;23.30;99.90
41928;DHT22;27616;51.420;6.788;2023-10-13T14:51:53;23.20;99.90
41928;DHT22;27616;51.420;6.788;2023-10-13T14:54:21;23.20;99.90
41928;DHT22;27616;51.420;6.788;2023-10-13T14:56:59;23.20;99.90
41928;DHT22;27616;51.420;6.788;2023-10-13T14:59:25;23.10;99.90
41928;DHT22;27616;51.420;6.788;2023-10-13T15:01:51;23.10;99.90
41928;DHT22;27616;51.420;6.788;2023-10-13T15:04:16;23.00;99.90
41928;DHT22;27616;51.420;6.788;2023-10-13T15:06:42;23.10;99.90
41928;DHT22;27616;51.420;6.788;2023-10-13T15:09:09;23.00;99.90
41928;DHT22;27616;51.420;6.788;2023-10-13T15:11:37;23.00;99.90
41928;DHT22;27616;51.420;6.788;2023-10-13T15:14:03;23.00;99.90
41928;DHT22;27616;51.420;6.788;2023-10-13T15:16:29;22.90;99.90
41928;DHT22;27616;51.420;6.788;2023-10-13T15:18:55;22.90;99.90
41928;DHT22;27616;51.420;6.788;2023-10-13T15:21:21;22.90;99.90
41928;DHT22;27616;51.420;6.788;2023-10-13T15:23:51;22.90;99.90
41928;DHT22;27616;51.420;6.788;2023-10-13T15:26:17;22.80;99.90
41928;DHT22;27616;51.420;6.788;2023-10-13T15:28:43;22.80;99.90
41928;DHT22;27616;51.420;6.788;2023-10-13T15:31:15;22.70;99.90
41928;DHT22;27616;51.420;6.788;2023-10-13T15:34:04;22.80;99.90
41928;DHT22;27616;51.420;6.788;2023-10-13T15:36:39;22.80;99.90
41928;DHT22;27616;51.420;6.788;2023-10-13T15:39:06;22.80;99.90
41928;DHT22;27616;51.420;6.788;2023-10-13T15:41:41;22.80;99.90
41928;DHT22;27616;51.420;6.788;2023-10-13T15:44:13;22.70;99.90
41928;DHT22;27616;51.420;6.788;2023-10-13T15:46:39;22.70;99.90
41928;DHT22;27616;51.420;6.788;2023-10-13T15:49:05;22.70;99.90
41928;DHT22;27616;51.420;6.788;2023-10-13T15:51:33;22.70;99.90
41928;DHT22;27616;51.420;6.788;2023-10-13T15:54:02;22.70;99.90
41928;DHT22;27616;51.420;6.788;2023-10-13T15:56:28;22.60;99.90
41928;DHT22;27616;51.420;6.788;2023-10-13T15:58:58;22.60;99.90
41928;DHT22;27616;51.420;6.788;2023-10-13T16:01:27;22.60;99.90
41928;DHT22;27616;51.420;6.788;2023-10-13T16:03:53;22.50;99.90
41928;DHT22;27616;51.420;6.788;2023-10-13T16:06:19;22.50;99.90
41928;DHT22;27616;51.420;6.788;2023-10-13T16:08:45;22.40;99.90
41928;DHT22;27616;51.420;6.788;2023-10-13T16:11:12;22.40;99.90
41928;DHT22;27616;51.420;6.788;2023-10-13T16:13:45;22.40;99.90
41928;DHT22;27616;51.420;6.788;2023-10-13T16:16:18;22.40;99.90
41928;DHT22;27616;51.420;6.788;2023-10-13T16:18:44;22.50;99.90
41928;DHT22;27616;51.420;6.788;2023-10-13T16:21:11;22.50;99.90
41928;DHT22;27616;51.420;6.788;2023-10-13T16:23:44;22.50;99.90
41928;DHT22;27616;51.420;6.788;2023-10-13T16:26:20;22.50;99.90
41928;DHT22;27616;51.420;6.788;2023-10-13T16:28:50;22.50;99.90
41928;DHT22;27616;51.420;6.788;2023-10-13T16:31:23;22.50;99.90
41928;DHT22;27616;51.420;6.788;2023-10-13T16:33:53;22.50;99.90
41928;DHT22;27616;51.420;6.788;2023-10-13T16:36:21;22.40;99.90